createdAt,value
2023-04-07T00:08:44.353Z,38.67
2023-04-07T00:18:46.647Z,30.67
2023-04-07T00:28:48.890Z,37.97
2023-04-07T00:38:52.600Z,51.80
2023-04-07T00:48:55.140Z,44.40
2023-04-07T00:58:57.506Z,34.63
2023-04-07T01:09:24.557Z,41.97
2023-04-07T01:19:59.454Z,38.97
2023-04-07T01:30:04.675Z,43.43
2023-04-07T01:40:12.838Z,47.17
2023-04-07T01:50:15.452Z,41.60
2023-04-07T02:00:21.520Z,49.53
2023-04-07T02:10:31.625Z,48.07
2023-04-07T02:20:41.563Z,56.77
2023-04-07T02:30:49.416Z,50.00
2023-04-07T02:40:51.845Z,65.73
2023-04-07T02:50:54.635Z,56.47
2023-04-07T03:00:56.869Z,64.80
2023-04-07T03:11:05.262Z,55.83
2023-04-07T03:21:08.472Z,55.53
2023-04-07T03:31:17.093Z,57.67
2023-04-07T03:41:26.380Z,72.43
2023-04-07T03:51:29.959Z,62.60
2023-04-07T04:01:38.190Z,71.37
2023-04-07T04:11:49.347Z,65.43
2023-04-07T04:21:52.311Z,51.37
2023-04-07T04:32:01.301Z,55.83
2023-04-07T04:42:06.084Z,49.37
2023-04-07T04:52:11.712Z,53.27
2023-04-07T05:02:20.201Z,55.50
2023-04-07T05:12:24.997Z,58.77
2023-04-07T05:22:33.326Z,58.07
2023-04-07T05:32:35.655Z,70.97
2023-04-07T05:42:46.827Z,60.53
2023-04-07T05:52:49.795Z,53.27
2023-04-07T06:03:02.932Z,59.10
2023-04-07T06:13:14.198Z,51.83
2023-04-07T06:23:23.876Z,56.83
2023-04-07T06:33:28.828Z,61.07
2023-04-07T06:43:37.155Z,49.53
2023-04-07T06:53:50.202Z,51.03
2023-04-07T07:03:53.839Z,59.37
2023-04-07T07:14:05.717Z,54.57
2023-04-07T07:24:10.192Z,53.00
2023-04-07T07:34:12.528Z,49.53
2023-04-07T07:44:24.564Z,44.27
2023-04-07T07:54:26.841Z,49.43
2023-04-07T08:04:29.149Z,49.03
2023-04-07T08:14:33.896Z,57.27
2023-04-07T08:24:36.257Z,45.27
2023-04-07T08:34:38.530Z,44.07
2023-04-07T08:44:44.203Z,38.57
2023-04-07T08:54:46.395Z,39.20
2023-04-07T09:04:51.272Z,37.87
2023-04-07T09:14:56.660Z,32.93
2023-04-07T09:25:10.961Z,37.30
2023-04-07T09:35:13.392Z,35.50
2023-04-07T09:45:34.575Z,40.17
2023-04-07T09:55:44.549Z,36.40
2023-04-07T10:05:52.188Z,28.30
2023-04-07T10:15:54.729Z,31.23
2023-04-07T10:26:03.074Z,28.90
2023-04-07T10:36:08.673Z,26.53
2023-04-07T10:46:13.223Z,26.77
2023-04-07T10:56:18.189Z,23.30
2023-04-07T11:06:20.336Z,24.25
2023-04-07T11:16:38.025Z,21.13
2023-04-07T11:26:45.864Z,21.40
2023-04-07T11:36:48.297Z,17.92
2023-04-07T11:46:58.927Z,14.38
2023-04-07T11:57:01.429Z,16.98
2023-04-07T12:07:12.609Z,26.10
2023-04-07T12:17:25.028Z,19.70
2023-04-07T12:27:42.195Z,25.07
2023-04-07T12:37:49.607Z,27.10
2023-04-07T12:47:52.397Z,25.23
2023-04-07T12:57:56.931Z,12.20
2023-04-07T13:08:01.645Z,7.45
2023-04-07T13:18:04.175Z,5.17
2023-04-07T13:28:10.877Z,7.35
2023-04-07T13:38:15.848Z,3.43
2023-04-07T13:48:24.072Z,3.50
2023-04-07T13:58:30.539Z,2.57
2023-04-07T14:08:34.265Z,3.33
2023-04-07T14:18:37.428Z,4.07
2023-04-07T14:28:39.970Z,5.70
2023-04-07T14:38:42.214Z,3.70
2023-04-07T14:48:46.415Z,4.73
2023-04-07T14:58:48.605Z,3.53
2023-04-07T15:08:53.239Z,3.60
2023-04-07T15:18:58.160Z,4.93
2023-04-07T15:29:03.456Z,4.77
2023-04-07T15:39:10.813Z,7.00
2023-04-07T15:49:24.222Z,3.57
2023-04-07T15:59:31.202Z,4.73
2023-04-07T16:09:34.276Z,4.17
2023-04-07T16:19:37.113Z,4.65
2023-04-07T16:29:39.233Z,3.33
2023-04-07T16:39:41.516Z,3.43
2023-04-07T16:49:46.326Z,3.00
2023-04-07T16:59:50.764Z,4.13
2023-04-07T17:09:56.073Z,4.60
2023-04-07T17:19:59.987Z,5.50
2023-04-07T17:30:08.608Z,3.23
2023-04-07T17:40:13.325Z,4.40
2023-04-07T17:50:16.687Z,3.63
2023-04-07T18:00:21.752Z,4.47
2023-04-07T18:10:23.997Z,5.03
2023-04-07T18:20:28.403Z,6.73
2023-04-07T18:30:30.686Z,5.67
2023-04-07T18:40:33.674Z,5.83
2023-04-07T18:50:38.438Z,4.97
2023-04-07T19:00:43.547Z,6.73
2023-04-07T19:10:45.953Z,7.00
2023-04-07T19:20:48.342Z,6.07
2023-04-07T19:30:50.704Z,6.10
2023-04-07T19:40:57.814Z,7.50
2023-04-07T19:51:00.150Z,8.00
2023-04-07T20:01:04.708Z,8.90
2023-04-07T20:11:11.454Z,5.67
2023-04-07T20:21:15.792Z,5.47
2023-04-07T20:31:21.409Z,7.57
2023-04-07T20:41:26.971Z,6.13
2023-04-07T20:51:29.303Z,4.93
2023-04-07T21:01:36.922Z,7.80
2023-04-07T21:11:39.183Z,8.50
2023-04-07T21:21:47.402Z,8.03
2023-04-07T21:31:53.007Z,10.17
2023-04-07T21:41:55.223Z,9.33
2023-04-07T21:51:58.349Z,7.87
2023-04-07T22:02:01.127Z,8.33
2023-04-07T22:12:06.286Z,7.70
2023-04-07T22:22:08.968Z,4.33
2023-04-07T22:32:11.137Z,8.30
2023-04-07T22:42:15.914Z,8.63
2023-04-07T22:52:18.985Z,8.33
2023-04-07T23:02:24.008Z,7.37
2023-04-07T23:12:32.161Z,8.13
2023-04-07T23:22:36.647Z,8.97
2023-04-07T23:32:38.861Z,10.57
2023-04-07T23:42:41.373Z,11.03
2023-04-07T23:52:45.318Z,10.00
